Pagina principale
METAR-TAF:

METAR-TAF

Aeroporti :

Comiso, Italia

Aeroporto di Comiso

latitudine: 36-59-30N, longitudine: 14-36-25E, altezza: 190 m

Osservazione

Il bollettino è stato emesso 1 ora e 7 minuti fa, alle 10:50 UTC
Vento 12 kt da ovest/nord-ovest
Temperature 17°C
Umidità 59%
Pressione 1015 hPa
Visibilità 10 km o più
nessuna nube inferiore a 1500 m e nessun cumulonembo

METAR: LICB 191050Z 29012KT CAVOK 17/09 Q1015

Ora: 12:57 (11:57 UTC)

Previsione

Il bollettino è stato emesso 57 minuti fa, alle 11:00 UTC
Previsione valida dal 19 alle 12 UTC al 19 alle 21 UTC
Vento 12 kt da ovest/nord-ovest
Visibilità 10 km o più
Nubi sparse ad un'altezza di 3000 ft

TAF: LICB 191100Z 1912/1921 29012KT 9999 SCT030

Osservazioni e previsioni meteorologiche di più di 4000 aeroporti (messaggi METAR e TAF).

Le stazioni disponibili sono rappresentate dai dischi gialli e rossi sulla carta.

Puntare il mouse per vedere il nome della stazione.

Clicca sopra per visualizzare le osservazioni e previsioni meteorologiche.

Per cambiare la mappa : fare clic sui pulsanti verdi con una croce nera per ingrandire, il pulsante verde con un trattino per diminuire, o sulla freccia verde per le mappe adiacenti.


METAR-TAF: